Time,TemperatureF,DewpointF,PressureIn,WindDirection,WindDirectionDegrees,WindSpeedMPH,WindSpeedGustMPH,Humidity,HourlyPrecipIn,Conditions,Clouds,dailyrainin,SoftwareType,DateUTC
2013-03-04 00:00:00,3.7,-17.8,30.08,WNW,295,0.0,0.0,35,0.00,,---,0.00,VWS V12.08,2013-03-04 06:00:00,
2013-03-04 00:05:00,3.2,-18.3,30.08,WNW,294,0.0,0.0,35,0.00,,---,0.00,VWS V12.08,2013-03-04 06:05:00,
2013-03-04 00:10:00,2.8,-18.6,30.08,WNW,294,0.0,0.0,35,0.00,,---,0.00,VWS V12.08,2013-03-04 06:10:00,
2013-03-04 00:15:00,2.8,-18.6,30.08,WNW,294,0.0,0.0,35,0.00,,---,0.00,VWS V12.08,2013-03-04 06:15:00,
2013-03-04 00:20:00,2.7,-18.8,30.08,WNW,293,0.0,0.0,35,0.00,,---,0.00,VWS V12.08,2013-03-04 06:20:00,
2013-03-04 00:25:00,2.8,-18.6,30.08,WNW,294,0.0,0.0,35,0.00,,---,0.00,VWS V12.08,2013-03-04 06:25:00,
2013-03-04 00:30:00,3.7,-17.8,30.08,WNW,293,0.0,0.0,35,0.00,,---,0.00,VWS V12.08,2013-03-04 06:30:00,
2013-03-04 00:35:00,4.5,-17.1,30.08,WSW,253,0.0,0.0,35,0.00,,---,0.00,VWS V12.08,2013-03-04 06:35:00,
2013-03-04 00:40:00,5.2,-16.5,30.08,WSW,251,0.0,0.0,35,0.00,,---,0.00,VWS V12.08,2013-03-04 06:40:00,
2013-03-04 00:45:00,5.5,-16.2,30.08,WSW,252,0.0,0.0,35,0.00,,---,0.00,VWS V12.08,2013-03-04 06:45:00,
2013-03-04 00:50:00,5.0,-16.7,30.08,WSW,252,0.0,0.0,35,0.00,,---,0.00,VWS V12.08,2013-03-04 06:50:00,
2013-03-04 00:55:00,4.5,-17.1,30.08,WSW,252,0.0,0.0,35,0.00,,---,0.00,VWS V12.08,2013-03-04 06:55:00,
2013-03-04 01:00:00,4.1,-17.5,30.11,WSW,252,0.0,0.0,35,0.00,,---,0.00,VWS V12.08,2013-03-04 07:00:00,
2013-03-04 01:05:00,4.1,-17.5,30.11,WSW,252,0.0,0.0,35,0.00,,---,0.00,VWS V12.08,2013-03-04 07:05:00,
2013-03-04 01:10:00,4.1,-17.5,30.11,WSW,252,0.0,0.0,35,0.00,,---,0.00,VWS V12.08,2013-03-04 07:10:00,
2013-03-04 01:15:00,3.7,-17.8,30.11,WSW,251,0.0,0.0,35,0.00,,---,0.00,VWS V12.08,2013-03-04 07:15:00,
2013-03-04 01:20:00,3.7,-17.8,30.11,WSW,252,0.0,0.0,35,0.00,,---,0.00,VWS V12.08,2013-03-04 07:20:00,
2013-03-04 01:25:00,3.9,-17.6,30.11,WSW,251,0.0,0.0,35,0.00,,---,0.00,VWS V12.08,2013-03-04 07:25:00,
2013-03-04 01:30:00,4.1,-17.5,30.11,WSW,252,0.0,0.0,35,0.00,,---,0.00,VWS V12.08,2013-03-04 07:30:00,
2013-03-04 01:35:00,4.1,-17.5,30.11,WSW,251,0.0,0.0,35,0.00,,---,0.00,VWS V12.08,2013-03-04 07:35:00,
2013-03-04 01:40:00,4.3,-17.3,30.11,WSW,252,0.0,0.0,35,0.00,,---,0.00,VWS V12.08,2013-03-04 07:40:00,
2013-03-04 01:45:00,5.0,-16.7,30.11,WSW,252,0.0,0.0,35,0.00,,---,0.00,VWS V12.08,2013-03-04 07:45:00,
2013-03-04 01:50:00,5.2,-16.5,30.11,WSW,252,0.0,0.0,35,0.00,,---,0.00,VWS V12.08,2013-03-04 07:50:00,
2013-03-04 01:55:00,5.4,-16.3,30.11,WSW,252,0.0,0.0,35,0.00,,---,0.00,VWS V12.08,2013-03-04 07:55:00,
2013-03-04 02:00:00,5.2,-16.5,30.11,WSW,251,0.0,0.0,35,0.00,,---,0.00,VWS V12.08,2013-03-04 08:00:00,
2013-03-04 02:05:00,4.8,-16.8,30.11,WSW,251,0.0,0.0,35,0.00,,---,0.00,VWS V12.08,2013-03-04 08:05:00,
2013-03-04 02:10:00,4.6,-17.0,30.11,WSW,251,0.0,0.0,35,0.00,,---,0.00,VWS V12.08,2013-03-04 08:10:00,
2013-03-04 02:15:00,4.5,-17.1,30.11,WSW,252,0.0,0.0,35,0.00,,---,0.00,VWS V12.08,2013-03-04 08:15:00,
2013-03-04 02:20:00,4.5,-17.1,30.11,WSW,252,0.0,0.0,35,0.00,,---,0.00,VWS V12.08,2013-03-04 08:20:00,
2013-03-04 02:26:00,4.5,-17.1,30.11,WSW,251,0.0,0.0,35,0.00,,---,0.00,VWS V12.08,2013-03-04 08:26:00,
2013-03-04 02:31:00,4.5,-17.1,30.11,WSW,252,0.0,0.0,35,0.00,,---,0.00,VWS V12.08,2013-03-04 08:31:00,
2013-03-04 02:36:00,4.6,-17.0,30.11,WSW,252,0.0,0.0,35,0.00,,---,0.00,VWS V12.08,2013-03-04 08:36:00,
2013-03-04 02:41:00,4.8,-16.8,30.11,WSW,252,0.0,0.0,35,0.00,,---,0.00,VWS V12.08,2013-03-04 08:41:00,
2013-03-04 02:46:00,4.8,-16.8,30.11,WSW,252,0.0,0.0,35,0.00,,---,0.00,VWS V12.08,2013-03-04 08:46:00,
2013-03-04 02:51:00,4.8,-16.8,30.11,WSW,252,0.0,0.0,35,0.00,,---,0.00,VWS V12.08,2013-03-04 08:51:00,
2013-03-04 02:56:00,5.0,-16.7,30.11,WSW,252,0.0,0.0,35,0.00,,---,0.00,VWS V12.08,2013-03-04 08:56:00,
2013-03-04 03:01:00,5.4,-16.3,30.11,WSW,251,0.0,0.0,35,0.00,,---,0.00,VWS V12.08,2013-03-04 09:01:00,
2013-03-04 03:06:00,5.4,-16.3,30.11,WSW,251,0.0,0.0,35,0.00,,---,0.00,VWS V12.08,2013-03-04 09:06:00,
2013-03-04 03:11:00,5.5,-16.2,30.11,WSW,252,0.0,0.0,35,0.00,,---,0.00,VWS V12.08,2013-03-04 09:11:00,
2013-03-04 03:16:00,5.5,-16.2,30.11,WSW,252,0.0,0.0,35,0.00,,---,0.00,VWS V12.08,2013-03-04 09:16:00,
2013-03-04 03:21:00,5.7,-16.0,30.11,WSW,252,0.0,0.0,35,0.00,,---,0.00,VWS V12.08,2013-03-04 09:21:00,
2013-03-04 03:26:00,5.5,-16.2,30.11,WSW,251,0.0,0.0,35,0.00,,---,0.00,VWS V12.08,2013-03-04 09:26:00,
2013-03-04 03:31:00,5.9,-15.9,30.11,WSW,252,0.0,0.0,35,0.00,,---,0.00,VWS V12.08,2013-03-04 09:31:00,
2013-03-04 03:36:00,5.9,-15.9,30.11,WSW,251,0.0,0.0,35,0.00,,---,0.00,VWS V12.08,2013-03-04 09:36:00,
2013-03-04 03:41:00,5.9,-15.9,30.11,WSW,252,0.0,0.0,35,0.00,,---,0.00,VWS V12.08,2013-03-04 09:41:00,
2013-03-04 03:46:00,5.9,-15.9,30.11,WSW,252,0.0,0.0,35,0.00,,---,0.00,VWS V12.08,2013-03-04 09:46:00,
2013-03-04 03:51:00,5.7,-16.0,30.11,WSW,251,0.0,0.0,35,0.00,,---,0.00,VWS V12.08,2013-03-04 09:51:00,
2013-03-04 03:56:00,5.9,-15.9,30.11,WSW,252,0.0,0.0,35,0.00,,---,0.00,VWS V12.08,2013-03-04 09:56:00,
2013-03-04 04:01:00,5.9,-15.9,30.11,WSW,252,0.0,0.0,35,0.00,,---,0.00,VWS V12.08,2013-03-04 10:01:00,
2013-03-04 04:06:00,5.9,-15.9,30.11,WSW,251,0.0,0.0,35,0.00,,---,0.00,VWS V12.08,2013-03-04 10:06:00,
2013-03-04 04:11:00,5.7,-16.0,30.11,WSW,252,0.0,0.0,35,0.00,,---,0.00,VWS V12.08,2013-03-04 10:11:00,
2013-03-04 04:16:00,5.5,-16.2,30.11,WSW,252,0.0,0.0,35,0.00,,---,0.00,VWS V12.08,2013-03-04 10:16:00,
2013-03-04 04:21:00,5.5,-16.2,30.11,WSW,251,0.0,0.0,35,0.00,,---,0.00,VWS V12.08,2013-03-04 10:21:00,
2013-03-04 04:26:00,5.4,-16.3,30.11,WSW,252,0.0,0.0,35,0.00,,---,0.00,VWS V12.08,2013-03-04 10:26:00,
2013-03-04 04:31:00,5.4,-16.3,30.11,WSW,251,3.1,3.1,35,0.00,,---,0.00,VWS V12.08,2013-03-04 10:31:00,
2013-03-04 04:36:00,5.2,-16.5,30.11,NE,39,3.1,4.0,35,0.00,,---,0.00,VWS V12.08,2013-03-04 10:36:00,
2013-03-04 04:41:00,5.4,-16.3,30.11,NE,39,3.6,4.0,35,0.00,,---,0.00,VWS V12.08,2013-03-04 10:41:00,
2013-03-04 04:46:00,5.5,-16.2,30.11,NE,39,4.0,4.9,35,0.00,,---,0.00,VWS V12.08,2013-03-04 10:46:00,
2013-03-04 04:51:00,5.4,-16.3,30.11,NE,39,3.1,4.0,35,0.00,,---,0.00,VWS V12.08,2013-03-04 10:51:00,
2013-03-04 04:56:00,5.4,-16.3,30.11,NE,39,2.2,4.0,35,0.00,,---,0.00,VWS V12.08,2013-03-04 10:56:00,
2013-03-04 05:01:00,5.7,-16.0,30.11,NE,39,3.1,4.0,35,0.00,,---,0.00,VWS V12.08,2013-03-04 11:01:00,
2013-03-04 05:06:00,6.3,-15.5,30.11,NE,39,3.6,4.0,35,0.00,,---,0.00,VWS V12.08,2013-03-04 11:06:00,
2013-03-04 05:11:00,6.8,-15.1,30.11,NE,39,3.6,4.5,35,0.00,,---,0.00,VWS V12.08,2013-03-04 11:11:00,
2013-03-04 05:16:00,7.0,-14.9,30.11,NE,39,3.6,4.5,35,0.00,,---,0.00,VWS V12.08,2013-03-04 11:16:00,
2013-03-04 05:21:00,6.8,-15.1,30.11,NE,39,3.6,4.0,35,0.00,,---,0.00,VWS V12.08,2013-03-04 11:21:00,
2013-03-04 05:26:00,7.0,-14.9,30.11,NE,39,4.0,4.0,35,0.00,,---,0.00,VWS V12.08,2013-03-04 11:26:00,
2013-03-04 05:31:00,7.0,-14.9,30.11,NE,39,3.6,4.0,35,0.00,,---,0.00,VWS V12.08,2013-03-04 11:31:00,
2013-03-04 05:36:00,6.6,-15.2,30.11,NE,39,3.6,4.0,35,0.00,,---,0.00,VWS V12.08,2013-03-04 11:36:00,
2013-03-04 05:41:00,6.8,-15.1,30.11,NE,39,2.2,4.0,35,0.00,,---,0.00,VWS V12.08,2013-03-04 11:41:00,
2013-03-04 05:46:00,6.8,-15.1,30.11,NE,39,0.0,4.0,35,0.00,,---,0.00,VWS V12.08,2013-03-04 11:46:00,
2013-03-04 05:51:00,6.6,-15.2,30.11,NE,39,2.7,2.7,35,0.00,,---,0.00,VWS V12.08,2013-03-04 11:51:00,
2013-03-04 05:56:00,6.8,-15.1,30.11,NE,39,0.0,3.6,35,0.00,,---,0.00,VWS V12.08,2013-03-04 11:56:00,
2013-03-04 06:01:00,7.0,-14.9,30.11,NE,39,0.0,3.6,35,0.00,,---,0.00,VWS V12.08,2013-03-04 12:01:00,
2013-03-04 06:06:00,7.2,-14.7,30.11,NE,39,0.0,2.7,35,0.00,,---,0.00,VWS V12.08,2013-03-04 12:06:00,
2013-03-04 06:12:00,7.3,-14.6,30.11,NE,39,0.0,2.7,35,0.00,,---,0.00,VWS V12.08,2013-03-04 12:12:00,
2013-03-04 06:17:00,7.5,-14.4,30.11,NE,39,0.0,2.7,35,0.00,,---,0.00,VWS V12.08,2013-03-04 12:17:00,
2013-03-04 06:22:00,7.7,-14.2,30.11,NE,39,0.0,0.0,35,0.00,,---,0.00,VWS V12.08,2013-03-04 12:22:00,
2013-03-04 06:27:00,7.9,-14.1,30.11,NE,39,0.0,0.0,35,0.00,,---,0.00,VWS V12.08,2013-03-04 12:27:00,
2013-03-04 06:32:00,8.4,-13.6,30.11,NE,39,0.0,0.0,35,0.00,,---,0.00,VWS V12.08,2013-03-04 12:32:00,
2013-03-04 06:37:00,8.4,-13.6,30.11,NE,39,0.0,0.0,35,0.00,,---,0.00,VWS V12.08,2013-03-04 12:37:00,
2013-03-04 06:42:00,8.1,-13.9,30.11,NE,39,0.0,0.0,35,0.00,,---,0.00,VWS V12.08,2013-03-04 12:42:00,
2013-03-04 06:47:00,8.1,-13.9,30.11,NE,39,0.0,0.0,35,0.00,,---,0.00,VWS V12.08,2013-03-04 12:47:00,
2013-03-04 06:52:00,8.1,-13.9,30.11,NE,39,0.0,0.0,35,0.00,,---,0.00,VWS V12.08,2013-03-04 12:52:00,
2013-03-04 06:57:00,8.1,-13.9,30.11,NE,39,0.0,0.0,35,0.00,,---,0.00,VWS V12.08,2013-03-04 12:57:00,
2013-03-04 07:02:00,8.6,-13.4,30.11,West,269,0.0,0.0,35,0.00,,---,0.00,VWS V12.08,2013-03-04 13:02:00,
2013-03-04 07:07:00,8.8,-13.3,30.11,West,273,0.0,0.0,35,0.00,,---,0.00,VWS V12.08,2013-03-04 13:07:00,
2013-03-04 07:12:00,9.0,-13.1,30.11,ENE,59,0.0,0.0,35,0.00,,---,0.00,VWS V12.08,2013-03-04 13:12:00,
2013-03-04 07:17:00,9.3,-12.8,30.11,ENE,59,0.0,0.0,35,0.00,,---,0.00,VWS V12.08,2013-03-04 13:17:00,
2013-03-04 07:22:00,9.7,-12.5,30.11,ENE,59,0.0,0.0,35,0.00,,---,0.00,VWS V12.08,2013-03-04 13:22:00,
2013-03-04 07:27:00,10.0,-12.1,30.11,ENE,59,0.0,0.0,35,0.00,,---,0.00,VWS V12.08,2013-03-04 13:27:00,
2013-03-04 07:32:00,9.7,-12.5,30.11,ENE,58,2.7,2.7,35,0.00,,---,0.00,VWS V12.08,2013-03-04 13:32:00,
2013-03-04 07:37:00,9.9,-12.3,30.11,NE,56,2.7,3.1,35,0.00,,---,0.00,VWS V12.08,2013-03-04 13:37:00,
2013-03-04 07:42:00,10.4,-11.8,30.11,NE,55,0.0,4.0,35,0.00,,---,0.00,VWS V12.08,2013-03-04 13:42:00,
2013-03-04 07:47:00,10.8,-11.5,30.11,NE,55,0.0,0.0,35,0.00,,---,0.00,VWS V12.08,2013-03-04 13:47:00,
2013-03-04 07:52:00,11.8,-10.5,30.11,NE,55,3.1,3.1,35,0.00,,---,0.00,VWS V12.08,2013-03-04 13:52:00,
2013-03-04 07:57:00,12.9,-9.6,30.11,NE,54,4.0,4.0,35,0.00,,---,0.00,VWS V12.08,2013-03-04 13:57:00,
2013-03-04 08:02:00,13.6,-8.9,30.11,NE,48,4.9,4.9,35,0.00,,---,0.00,VWS V12.08,2013-03-04 14:02:00,
2013-03-04 08:07:00,14.2,-4.2,30.11,NE,50,5.4,5.4,43,0.00,,---,0.00,VWS V12.08,2013-03-04 14:07:00,
2013-03-04 08:12:00,15.8,-1.8,30.11,NE,45,5.8,6.3,45,0.00,,---,0.00,VWS V12.08,2013-03-04 14:12:00,
2013-03-04 08:17:00,17.8,-1.9,30.11,ENE,69,5.8,5.8,41,0.00,,---,0.00,VWS V12.08,2013-03-04 14:17:00,
2013-03-04 08:22:00,18.5,-1.8,30.11,ENE,60,3.1,5.8,40,0.00,,---,0.00,VWS V12.08,2013-03-04 14:22:00,
2013-03-04 08:27:00,19.0,-1.8,30.11,NE,45,5.4,6.3,39,0.00,,---,0.00,VWS V12.08,2013-03-04 14:27:00,
2013-03-04 08:32:00,19.9,-1.0,30.11,East,88,4.9,7.6,39,0.00,,---,0.00,VWS V12.08,2013-03-04 14:32:00,
2013-03-04 08:37:00,20.5,-0.5,30.11,East,90,6.3,8.1,39,0.00,,---,0.00,VWS V12.08,2013-03-04 14:37:00,
2013-03-04 08:42:00,20.7,-0.4,30.11,ENE,78,5.4,8.1,39,0.00,,---,0.00,VWS V12.08,2013-03-04 14:42:00,
2013-03-04 08:47:00,21.0,0.0,30.11,NE,54,6.3,6.3,39,0.00,,---,0.00,VWS V12.08,2013-03-04 14:47:00,
2013-03-04 08:52:00,21.2,0.1,30.11,ENE,75,3.6,6.3,39,0.00,,---,0.00,VWS V12.08,2013-03-04 14:52:00,
2013-03-04 08:57:00,21.9,0.2,30.11,NE,53,4.0,6.3,38,0.00,,---,0.00,VWS V12.08,2013-03-04 14:57:00,
2013-03-04 09:02:00,22.5,0.7,30.11,ENE,65,5.4,5.4,38,0.00,,---,0.00,VWS V12.08,2013-03-04 15:02:00,
2013-03-04 09:07:00,22.8,1.0,30.11,NE,54,5.8,5.8,38,0.00,,---,0.00,VWS V12.08,2013-03-04 15:07:00,
2013-03-04 09:12:00,23.7,1.8,30.11,NE,50,5.8,5.8,38,0.00,,---,0.00,VWS V12.08,2013-03-04 15:12:00,
2013-03-04 09:17:00,24.8,2.8,30.11,ENE,69,6.3,6.3,38,0.00,,---,0.00,VWS V12.08,2013-03-04 15:17:00,
2013-03-04 09:22:00,25.3,2.7,30.11,ENE,67,5.8,6.3,37,0.00,,---,0.00,VWS V12.08,2013-03-04 15:22:00,
2013-03-04 09:27:00,25.9,2.0,30.08,ENE,60,4.0,8.1,35,0.00,,---,0.00,VWS V12.08,2013-03-04 15:27:00,
2013-03-04 09:32:00,26.2,3.5,30.08,NE,49,5.4,5.8,37,0.00,,---,0.00,VWS V12.08,2013-03-04 15:32:00,
2013-03-04 09:38:00,27.1,2.5,30.08,ENE,61,5.4,6.3,34,0.00,,---,0.00,VWS V12.08,2013-03-04 15:38:00,
2013-03-04 09:43:00,26.8,2.2,30.08,ENE,68,4.0,6.3,34,0.00,,---,0.00,VWS V12.08,2013-03-04 15:43:00,
2013-03-04 09:48:00,25.9,3.2,30.08,NNE,31,3.6,6.3,37,0.00,,---,0.00,VWS V12.08,2013-03-04 15:48:00,
2013-03-04 09:53:00,25.7,3.6,30.08,NE,52,5.4,6.3,38,0.00,,---,0.00,VWS V12.08,2013-03-04 15:53:00,
2013-03-04 09:58:00,26.1,3.9,30.08,ENE,72,5.4,7.6,38,0.00,,---,0.00,VWS V12.08,2013-03-04 15:58:00,
2013-03-04 10:03:00,26.4,4.3,30.08,ENE,76,5.8,6.3,38,0.00,,---,0.00,VWS V12.08,2013-03-04 16:03:00,
2013-03-04 10:08:00,27.3,4.5,30.08,NE,42,5.8,8.1,37,0.00,,---,0.00,VWS V12.08,2013-03-04 16:08:00,
2013-03-04 10:13:00,28.2,5.3,30.08,ENE,63,6.3,8.1,37,0.00,,---,0.00,VWS V12.08,2013-03-04 16:13:00,
2013-03-04 10:18:00,29.8,6.2,30.08,ENE,62,8.3,8.3,36,0.00,,---,0.00,VWS V12.08,2013-03-04 16:18:00,
2013-03-04 10:23:00,30.6,6.8,30.08,ENE,62,8.3,9.2,36,0.00,,---,0.00,VWS V12.08,2013-03-04 16:23:00,
2013-03-04 10:28:00,30.6,5.5,30.08,ENE,61,4.0,9.2,34,0.00,,---,0.00,VWS V12.08,2013-03-04 16:28:00,
2013-03-04 10:33:00,29.7,6.0,30.08,NE,48,5.8,5.8,36,0.00,,---,0.00,VWS V12.08,2013-03-04 16:33:00,
2013-03-04 10:38:00,28.6,5.0,30.08,ENE,74,5.8,7.6,36,0.00,,---,0.00,VWS V12.08,2013-03-04 16:38:00,
2013-03-04 10:43:00,28.9,5.3,30.08,NE,56,3.6,8.1,36,0.00,,---,0.00,VWS V12.08,2013-03-04 16:43:00,
2013-03-04 10:48:00,29.8,6.8,30.08,ENE,67,3.6,8.7,37,0.00,,---,0.00,VWS V12.08,2013-03-04 16:48:00,
2013-03-04 10:53:00,30.0,6.3,30.08,ENE,58,5.8,8.7,36,0.00,,---,0.00,VWS V12.08,2013-03-04 16:53:00,
2013-03-04 10:58:00,29.1,6.1,30.08,East,89,8.1,8.7,37,0.00,,---,0.00,VWS V12.08,2013-03-04 16:58:00,
2013-03-04 11:03:00,28.4,5.5,30.08,NE,44,9.2,9.2,37,0.00,,---,0.00,VWS V12.08,2013-03-04 17:03:00,
2013-03-04 11:08:00,28.8,5.8,30.08,ENE,71,5.4,9.2,37,0.00,,---,0.00,VWS V12.08,2013-03-04 17:08:00,
2013-03-04 11:13:00,29.5,6.4,30.08,NNE,20,3.6,9.2,37,0.00,,---,0.00,VWS V12.08,2013-03-04 17:13:00,
2013-03-04 11:18:00,29.7,6.6,30.08,NE,54,5.4,6.3,37,0.00,,---,0.00,VWS V12.08,2013-03-04 17:18:00,
2013-03-04 11:23:00,30.6,6.8,30.08,ENE,69,3.6,7.2,36,0.00,,---,0.00,VWS V12.08,2013-03-04 17:23:00,
2013-03-04 11:28:00,30.7,7.0,30.08,East,90,5.4,8.1,36,0.00,,---,0.00,VWS V12.08,2013-03-04 17:28:00,
2013-03-04 11:33:00,30.6,7.4,30.08,East,96,5.4,8.1,37,0.00,,---,0.00,VWS V12.08,2013-03-04 17:33:00,
2013-03-04 11:38:00,31.1,7.3,30.08,ENE,69,6.3,12.8,36,0.00,,---,0.00,VWS V12.08,2013-03-04 17:38:00,
2013-03-04 11:43:00,30.2,7.1,30.05,NNE,24,5.8,12.8,37,0.00,,---,0.00,VWS V12.08,2013-03-04 17:43:00,
2013-03-04 11:48:00,30.4,7.2,30.05,ENE,74,5.8,8.7,37,0.00,,---,0.00,VWS V12.08,2013-03-04 17:48:00,
2013-03-04 11:53:00,30.0,6.9,30.05,ESE,102,5.8,9.6,37,0.00,,---,0.00,VWS V12.08,2013-03-04 17:53:00,
2013-03-04 11:58:00,30.0,7.5,30.05,East,101,3.6,9.6,38,0.00,,---,0.00,VWS V12.08,2013-03-04 17:58:00,
2013-03-04 12:03:00,30.9,7.7,30.05,ENE,77,7.6,8.7,37,0.00,,---,0.00,VWS V12.08,2013-03-04 18:03:00,
2013-03-04 12:09:00,31.1,7.9,30.05,SE,125,3.1,8.7,37,0.00,,---,0.00,VWS V12.08,2013-03-04 18:09:00,
2013-03-04 12:14:00,31.6,8.4,30.05,SSE,161,7.6,8.7,37,0.00,,---,0.00,VWS V12.08,2013-03-04 18:14:00,
2013-03-04 12:19:00,31.5,8.2,30.05,ENE,74,5.8,11.0,37,0.00,,---,0.00,VWS V12.08,2013-03-04 18:19:00,
2013-03-04 12:24:00,33.3,9.8,30.05,ENE,74,8.1,11.0,37,0.00,,---,0.00,VWS V12.08,2013-03-04 18:24:00,
2013-03-04 12:29:00,33.1,9.1,30.05,South,185,6.3,11.0,36,0.00,,---,0.00,VWS V12.08,2013-03-04 18:29:00,
2013-03-04 12:30:00,32.4,8.4,30.05,ENE,72,5.4,11.0,36,0.00,,---,0.00,VWS V12.08,2013-03-04 18:30:00,
2013-03-04 12:35:00,32.2,8.2,30.05,ENE,72,7.6,7.6,36,0.00,,---,0.00,VWS V12.08,2013-03-04 18:35:00,
2013-03-04 12:40:00,32.5,8.6,30.05,NE,50,4.0,11.0,36,0.00,,---,0.00,VWS V12.08,2013-03-04 18:40:00,
2013-03-04 12:45:00,32.2,8.9,30.05,East,99,6.3,11.9,37,0.00,,---,0.00,VWS V12.08,2013-03-04 18:45:00,
2013-03-04 12:50:00,32.5,8.6,30.05,NNE,19,5.4,7.6,36,0.00,,---,0.00,VWS V12.08,2013-03-04 18:50:00,
2013-03-04 12:55:00,32.2,8.2,30.05,NE,41,7.6,8.1,36,0.00,,---,0.00,VWS V12.08,2013-03-04 18:55:00,
2013-03-04 13:00:00,33.1,9.1,30.02,SSE,156,8.3,8.7,36,0.00,,---,0.00,VWS V12.08,2013-03-04 19:00:00,
2013-03-04 13:05:00,32.2,8.9,30.02,South,169,3.6,8.3,37,0.00,,---,0.00,VWS V12.08,2013-03-04 19:05:00,
2013-03-04 13:10:00,32.5,8.6,30.02,SSE,150,3.6,8.3,36,0.00,,---,0.00,VWS V12.08,2013-03-04 19:10:00,
2013-03-04 13:15:00,32.5,9.2,30.05,ENE,59,4.0,8.7,37,0.00,,---,0.00,VWS V12.08,2013-03-04 19:15:00,
2013-03-04 13:20:00,32.7,8.7,30.05,SE,130,4.9,9.2,36,0.00,,---,0.00,VWS V12.08,2013-03-04 19:20:00,
2013-03-04 13:26:00,32.9,8.9,30.02,NE,53,4.0,10.1,36,0.00,,---,0.00,VWS V12.08,2013-03-04 19:26:00,
2013-03-04 13:31:00,33.8,9.7,30.02,SSE,160,4.0,10.1,36,0.00,,---,0.00,VWS V12.08,2013-03-04 19:31:00,
2013-03-04 13:36:00,32.9,9.5,30.02,East,100,4.5,8.3,37,0.00,,---,0.00,VWS V12.08,2013-03-04 19:36:00,
2013-03-04 13:41:00,33.3,9.8,30.02,ENE,74,8.7,10.1,37,0.00,,---,0.00,VWS V12.08,2013-03-04 19:41:00,
2013-03-04 13:46:00,34.2,10.0,30.02,East,96,6.7,12.3,36,0.00,,---,0.00,VWS V12.08,2013-03-04 19:46:00,
2013-03-04 13:51:00,34.7,10.5,30.02,NE,56,5.8,12.8,36,0.00,,---,0.00,VWS V12.08,2013-03-04 19:51:00,
2013-03-04 13:56:00,34.0,9.9,30.02,East,89,8.3,12.8,36,0.00,,---,0.00,VWS V12.08,2013-03-04 19:56:00,
2013-03-04 14:01:00,34.9,10.6,30.02,ENE,77,8.1,12.8,36,0.00,,---,0.00,VWS V12.08,2013-03-04 20:01:00,
2013-03-04 14:06:00,35.2,11.0,30.02,ENE,58,5.8,12.3,36,0.00,,---,0.00,VWS V12.08,2013-03-04 20:06:00,
2013-03-04 14:11:00,35.1,10.8,30.02,ENE,60,15.4,15.4,36,0.00,,---,0.00,VWS V12.08,2013-03-04 20:11:00,
2013-03-04 14:16:00,35.4,11.1,30.02,NNE,32,12.3,15.4,36,0.00,,---,0.00,VWS V12.08,2013-03-04 20:16:00,
2013-03-04 14:21:00,34.7,10.5,30.02,East,83,7.6,11.0,36,0.00,,---,0.00,VWS V12.08,2013-03-04 20:21:00,
2013-03-04 14:26:00,33.8,9.7,30.02,ENE,75,8.7,13.2,36,0.00,,---,0.00,VWS V12.08,2013-03-04 20:26:00,
2013-03-04 14:31:00,33.6,10.1,30.02,NE,55,5.4,13.2,37,0.00,,---,0.00,VWS V12.08,2013-03-04 20:31:00,
2013-03-04 14:36:00,33.8,9.7,30.02,NNE,33,7.6,11.9,36,0.00,,---,0.00,VWS V12.08,2013-03-04 20:36:00,
2013-03-04 14:41:00,34.0,9.9,30.02,East,82,8.3,11.9,36,0.00,,---,0.00,VWS V12.08,2013-03-04 20:41:00,
2013-03-04 14:46:00,33.8,9.7,30.02,NE,49,6.3,11.9,36,0.00,,---,0.00,VWS V12.08,2013-03-04 20:46:00,
2013-03-04 14:51:00,34.7,10.5,30.02,East,80,8.3,11.0,36,0.00,,---,0.00,VWS V12.08,2013-03-04 20:51:00,
2013-03-04 14:56:00,34.7,10.5,30.02,NE,55,8.7,11.0,36,0.00,,---,0.00,VWS V12.08,2013-03-04 20:56:00,
2013-03-04 15:01:00,34.5,10.3,30.02,NE,38,5.8,12.8,36,0.00,,---,0.00,VWS V12.08,2013-03-04 21:01:00,
2013-03-04 15:06:00,33.1,9.1,30.02,ENE,76,6.7,7.6,36,0.00,,---,0.00,VWS V12.08,2013-03-04 21:06:00,
2013-03-04 15:11:00,32.9,9.5,30.02,East,87,4.0,10.1,37,0.00,,---,0.00,VWS V12.08,2013-03-04 21:11:00,
2013-03-04 15:16:00,32.9,9.5,30.02,ESE,103,3.6,10.1,37,0.00,,---,0.00,VWS V12.08,2013-03-04 21:16:00,
2013-03-04 15:21:00,32.7,9.3,30.02,ESE,112,4.0,8.3,37,0.00,,---,0.00,VWS V12.08,2013-03-04 21:21:00,
2013-03-04 15:26:00,32.0,8.7,30.02,SSE,160,4.0,8.7,37,0.00,,---,0.00,VWS V12.08,2013-03-04 21:26:00,
2013-03-04 15:31:00,32.0,8.7,30.02,NE,34,3.6,8.7,37,0.00,,---,0.00,VWS V12.08,2013-03-04 21:31:00,
2013-03-04 15:36:00,32.5,9.2,30.02,East,85,6.3,8.7,37,0.00,,---,0.00,VWS V12.08,2013-03-04 21:36:00,
2013-03-04 15:41:00,33.1,9.7,30.02,NNE,27,4.9,11.0,37,0.00,,---,0.00,VWS V12.08,2013-03-04 21:41:00,
2013-03-04 15:46:00,33.4,10.6,30.02,East,84,10.1,13.2,38,0.00,,---,0.00,VWS V12.08,2013-03-04 21:46:00,
2013-03-04 15:51:00,33.3,11.0,30.02,ENE,78,11.0,12.8,39,0.00,,---,0.00,VWS V12.08,2013-03-04 21:51:00,
2013-03-04 15:56:00,33.1,10.8,30.02,ENE,63,10.5,12.8,39,0.00,,---,0.00,VWS V12.08,2013-03-04 21:56:00,
2013-03-04 16:01:00,33.1,11.4,30.02,NE,41,12.3,13.2,40,0.00,,---,0.00,VWS V12.08,2013-03-04 22:01:00,
2013-03-04 16:06:00,32.4,11.3,30.02,ESE,113,8.7,15.0,41,0.00,,---,0.00,VWS V12.08,2013-03-04 22:06:00,
2013-03-04 16:11:00,31.8,12.4,30.02,NE,55,8.3,15.0,44,0.00,,---,0.00,VWS V12.08,2013-03-04 22:11:00,
2013-03-04 16:16:00,31.6,12.2,30.02,ENE,78,8.7,17.4,44,0.00,,---,0.00,VWS V12.08,2013-03-04 22:16:00,
2013-03-04 16:21:00,31.3,12.9,30.02,ENE,75,10.5,15.0,46,0.00,,---,0.00,VWS V12.08,2013-03-04 22:21:00,
2013-03-04 16:26:00,30.7,12.4,30.02,NE,55,10.1,15.0,46,0.00,,---,0.00,VWS V12.08,2013-03-04 22:26:00,
2013-03-04 16:31:00,30.7,12.4,30.02,East,79,10.1,15.0,46,0.00,,---,0.00,VWS V12.08,2013-03-04 22:31:00,
2013-03-04 16:36:00,30.2,12.4,30.02,NE,54,8.3,15.0,47,0.00,,---,0.00,VWS V12.08,2013-03-04 22:36:00,
2013-03-04 16:41:00,30.0,12.2,30.02,ENE,65,6.3,15.0,47,0.00,,---,0.00,VWS V12.08,2013-03-04 22:41:00,
2013-03-04 16:46:00,29.5,12.2,30.02,ENE,63,6.3,15.0,48,0.00,,---,0.00,VWS V12.08,2013-03-04 22:46:00,
2013-03-04 16:51:00,29.5,12.2,30.02,ENE,63,8.7,12.8,48,0.00,,---,0.00,VWS V12.08,2013-03-04 22:51:00,
2013-03-04 16:56:00,29.5,12.7,30.02,ENE,74,5.8,13.2,49,0.00,,---,0.00,VWS V12.08,2013-03-04 22:56:00,
2013-03-04 17:01:00,29.5,12.2,30.02,ENE,65,11.9,13.2,48,0.00,,---,0.00,VWS V12.08,2013-03-04 23:01:00,
2013-03-04 17:06:00,29.3,12.1,30.02,ENE,72,8.7,12.8,48,0.00,,---,0.00,VWS V12.08,2013-03-04 23:06:00,
2013-03-04 17:11:00,29.1,11.9,30.02,ENE,58,11.0,15.9,48,0.00,,---,0.00,VWS V12.08,2013-03-04 23:11:00,
2013-03-04 17:16:00,28.9,11.2,30.02,ENE,69,5.4,15.9,47,0.00,,---,0.00,VWS V12.08,2013-03-04 23:16:00,
2013-03-04 17:21:00,28.8,11.1,30.02,NE,54,6.7,11.0,47,0.00,,---,0.00,VWS V12.08,2013-03-04 23:21:00,
2013-03-04 17:27:00,28.6,10.9,30.02,ENE,70,8.3,13.2,47,0.00,,---,0.00,VWS V12.08,2013-03-04 23:27:00,
2013-03-04 17:32:00,28.6,11.4,30.02,NE,37,7.6,13.2,48,0.00,,---,0.00,VWS V12.08,2013-03-04 23:32:00,
2013-03-04 17:37:00,28.6,11.4,30.02,ENE,66,8.3,12.8,48,0.00,,---,0.00,VWS V12.08,2013-03-04 23:37:00,
2013-03-04 17:42:00,28.4,11.2,30.02,ESE,119,10.5,12.8,48,0.00,,---,0.00,VWS V12.08,2013-03-04 23:42:00,
2013-03-04 17:47:00,28.4,11.2,30.02,NE,34,10.1,12.8,48,0.00,,---,0.00,VWS V12.08,2013-03-04 23:47:00,
2013-03-04 17:52:00,28.4,11.2,30.02,NE,38,5.8,10.1,48,0.00,,---,0.00,VWS V12.08,2013-03-04 23:52:00,
2013-03-04 17:57:00,28.4,11.2,30.02,ENE,69,10.5,12.8,48,0.00,,---,0.00,VWS V12.08,2013-03-04 23:57:00,
2013-03-04 18:02:00,28.2,10.6,30.02,NE,50,8.1,12.8,47,0.00,,---,0.00,VWS V12.08,2013-03-05 00:02:00,
2013-03-04 18:07:00,28.0,10.4,30.02,ENE,58,5.8,13.2,47,0.00,,---,0.00,VWS V12.08,2013-03-05 00:07:00,
2013-03-04 18:12:00,28.0,10.4,30.02,ENE,57,6.3,13.2,47,0.00,,---,0.00,VWS V12.08,2013-03-05 00:12:00,
2013-03-04 18:17:00,28.0,10.4,30.02,ENE,76,5.8,13.2,47,0.00,,---,0.00,VWS V12.08,2013-03-05 00:17:00,
2013-03-04 18:22:00,28.0,10.4,30.02,NE,52,8.3,8.7,47,0.00,,---,0.00,VWS V12.08,2013-03-05 00:22:00,
2013-03-04 18:27:00,28.0,10.4,30.05,ENE,76,5.8,10.1,47,0.00,,---,0.00,VWS V12.08,2013-03-05 00:27:00,
2013-03-04 18:32:00,28.0,10.9,30.05,NNE,25,6.3,10.1,48,0.00,,---,0.00,VWS V12.08,2013-03-05 00:32:00,
2013-03-04 18:37:00,27.9,10.3,30.05,ENE,72,7.6,10.5,47,0.00,,---,0.00,VWS V12.08,2013-03-05 00:37:00,
2013-03-04 18:42:00,27.9,10.3,30.05,NE,38,7.6,10.5,47,0.00,,---,0.00,VWS V12.08,2013-03-05 00:42:00,
2013-03-04 18:47:00,27.9,10.7,30.05,NE,40,4.9,10.5,48,0.00,,---,0.00,VWS V12.08,2013-03-05 00:47:00,
2013-03-04 18:52:00,27.9,10.7,30.05,ENE,72,5.4,9.6,48,0.00,,---,0.00,VWS V12.08,2013-03-05 00:52:00,
2013-03-04 18:57:00,27.9,10.7,30.05,ENE,64,8.7,11.0,48,0.00,,---,0.00,VWS V12.08,2013-03-05 00:57:00,
2013-03-04 19:02:00,27.9,10.3,30.05,ENE,61,12.3,12.3,47,0.00,,---,0.00,VWS V12.08,2013-03-05 01:02:00,
2013-03-04 19:07:00,27.7,10.1,30.05,East,79,8.7,15.4,47,0.00,,---,0.00,VWS V12.08,2013-03-05 01:07:00,
2013-03-04 19:12:00,27.7,10.1,30.05,ENE,61,8.7,15.4,47,0.00,,---,0.00,VWS V12.08,2013-03-05 01:12:00,
2013-03-04 19:17:00,27.5,9.9,30.05,ENE,76,6.3,6.3,47,0.00,,---,0.00,VWS V12.08,2013-03-05 01:17:00,
2013-03-04 19:22:00,27.5,9.9,30.05,NE,34,6.3,13.2,47,0.00,,---,0.00,VWS V12.08,2013-03-05 01:22:00,
2013-03-04 19:27:00,27.5,10.4,30.05,NE,45,5.4,13.2,48,0.00,,---,0.00,VWS V12.08,2013-03-05 01:27:00,
2013-03-04 19:32:00,27.5,10.4,30.05,ENE,70,6.3,6.3,48,0.00,,---,0.00,VWS V12.08,2013-03-05 01:32:00,
2013-03-04 19:37:00,27.5,10.4,30.05,NNE,26,6.3,8.7,48,0.00,,---,0.00,VWS V12.08,2013-03-05 01:37:00,
2013-03-04 19:42:00,27.5,10.4,30.05,ENE,65,5.8,8.7,48,0.00,,---,0.00,VWS V12.08,2013-03-05 01:42:00,
2013-03-04 19:47:00,27.5,10.4,30.05,ENE,60,6.3,7.6,48,0.00,,---,0.00,VWS V12.08,2013-03-05 01:47:00,
2013-03-04 19:52:00,27.7,10.6,30.05,ENE,58,8.3,10.1,48,0.00,,---,0.00,VWS V12.08,2013-03-05 01:52:00,
2013-03-04 19:57:00,27.5,10.4,30.05,ENE,59,5.8,10.1,48,0.00,,---,0.00,VWS V12.08,2013-03-05 01:57:00,
2013-03-04 20:02:00,27.5,10.4,30.05,ENE,57,6.3,10.5,48,0.00,,---,0.00,VWS V12.08,2013-03-05 02:02:00,
2013-03-04 20:07:00,27.5,10.4,30.05,ENE,63,8.3,10.5,48,0.00,,---,0.00,VWS V12.08,2013-03-05 02:07:00,
2013-03-04 20:12:00,27.5,10.4,30.05,NE,48,8.1,11.4,48,0.00,,---,0.00,VWS V12.08,2013-03-05 02:12:00,
2013-03-04 20:17:00,27.5,10.4,30.05,NE,38,8.3,10.1,48,0.00,,---,0.00,VWS V12.08,2013-03-05 02:17:00,
2013-03-04 20:22:00,27.5,10.4,30.05,ENE,66,7.6,10.5,48,0.00,,---,0.00,VWS V12.08,2013-03-05 02:22:00,
2013-03-04 20:27:00,27.5,10.4,30.05,NNE,33,8.7,10.5,48,0.00,,---,0.00,VWS V12.08,2013-03-05 02:27:00,
2013-03-04 20:32:00,27.5,10.4,30.05,NE,56,6.3,8.3,48,0.00,,---,0.00,VWS V12.08,2013-03-05 02:32:00,
2013-03-04 20:37:00,27.5,10.9,30.05,ENE,75,6.3,10.1,49,0.00,,---,0.00,VWS V12.08,2013-03-05 02:37:00,
2013-03-04 20:42:00,27.3,10.2,30.05,NNE,28,4.9,10.1,48,0.00,,---,0.00,VWS V12.08,2013-03-05 02:42:00,
2013-03-04 20:47:00,27.3,10.7,30.05,NE,54,4.0,6.3,49,0.00,,---,0.00,VWS V12.08,2013-03-05 02:47:00,
2013-03-04 20:52:00,27.5,10.9,30.05,ENE,77,5.8,8.3,49,0.00,,---,0.00,VWS V12.08,2013-03-05 02:52:00,
2013-03-04 20:58:00,27.5,10.9,30.05,NE,51,5.8,10.1,49,0.00,,---,0.00,VWS V12.08,2013-03-05 02:58:00,
2013-03-04 21:03:00,27.5,10.9,30.05,NE,55,9.6,9.6,49,0.00,,---,0.00,VWS V12.08,2013-03-05 03:03:00,
2013-03-04 21:08:00,27.5,10.9,30.05,ENE,59,8.3,9.6,49,0.00,,---,0.00,VWS V12.08,2013-03-05 03:08:00,
2013-03-04 21:13:00,27.5,10.9,30.05,NNE,22,5.8,9.6,49,0.00,,---,0.00,VWS V12.08,2013-03-05 03:13:00,
2013-03-04 21:18:00,27.5,10.9,30.05,NE,47,5.4,8.3,49,0.00,,---,0.00,VWS V12.08,2013-03-05 03:18:00,
2013-03-04 21:23:00,27.5,10.9,30.05,East,82,5.8,8.7,49,0.00,,---,0.00,VWS V12.08,2013-03-05 03:23:00,
2013-03-04 21:28:00,27.5,10.9,30.05,NE,38,5.4,8.7,49,0.00,,---,0.00,VWS V12.08,2013-03-05 03:28:00,
2013-03-04 21:33:00,27.5,11.3,30.05,East,95,6.3,8.1,50,0.00,,---,0.00,VWS V12.08,2013-03-05 03:33:00,
2013-03-04 21:38:00,27.5,11.3,30.05,NE,48,5.8,8.3,50,0.00,,---,0.00,VWS V12.08,2013-03-05 03:38:00,
2013-03-04 21:43:00,27.5,11.3,30.05,NE,43,5.8,8.3,50,0.00,,---,0.00,VWS V12.08,2013-03-05 03:43:00,
2013-03-04 21:48:00,27.5,11.3,30.05,East,85,5.4,8.3,50,0.00,,---,0.00,VWS V12.08,2013-03-05 03:48:00,
2013-03-04 21:53:00,27.5,11.8,30.05,NE,51,7.6,8.3,51,0.00,,---,0.00,VWS V12.08,2013-03-05 03:53:00,
2013-03-04 21:58:00,27.5,11.8,30.05,NE,51,8.3,8.3,51,0.00,,---,0.00,VWS V12.08,2013-03-05 03:58:00,
2013-03-04 22:03:00,27.5,11.8,30.05,NE,50,6.7,8.1,51,0.00,,---,0.00,VWS V12.08,2013-03-05 04:03:00,
2013-03-04 22:08:00,27.5,11.8,30.05,East,86,7.6,9.2,51,0.00,,---,0.00,VWS V12.08,2013-03-05 04:08:00,
2013-03-04 22:13:00,27.5,11.8,30.05,NE,47,7.6,9.2,51,0.00,,---,0.00,VWS V12.08,2013-03-05 04:13:00,
2013-03-04 22:18:00,27.5,11.8,30.05,NE,43,5.8,8.1,51,0.00,,---,0.00,VWS V12.08,2013-03-05 04:18:00,
2013-03-04 22:23:00,27.5,11.8,30.05,NNE,24,7.2,8.7,51,0.00,,---,0.00,VWS V12.08,2013-03-05 04:23:00,
2013-03-04 22:28:00,27.5,12.2,30.05,ENE,76,8.1,8.7,52,0.00,,---,0.00,VWS V12.08,2013-03-05 04:28:00,
2013-03-04 22:33:00,27.5,12.2,30.05,NE,51,8.1,8.3,52,0.00,,---,0.00,VWS V12.08,2013-03-05 04:33:00,
2013-03-04 22:38:00,27.7,12.4,30.05,NE,53,6.7,9.2,52,0.00,,---,0.00,VWS V12.08,2013-03-05 04:38:00,
2013-03-04 22:43:00,27.7,12.4,30.05,NE,34,8.3,9.2,52,0.00,,---,0.00,VWS V12.08,2013-03-05 04:43:00,
2013-03-04 22:48:00,27.7,12.4,30.05,NE,43,6.3,8.7,52,0.00,,---,0.00,VWS V12.08,2013-03-05 04:48:00,
2013-03-04 22:53:00,27.7,12.4,30.05,NE,46,6.7,8.7,52,0.00,,---,0.00,VWS V12.08,2013-03-05 04:53:00,
2013-03-04 22:58:00,27.7,12.4,30.05,NE,50,7.6,8.7,52,0.00,,---,0.00,VWS V12.08,2013-03-05 04:58:00,
2013-03-04 23:00:00,27.7,12.8,30.05,ENE,68,7.6,8.7,53,0.00,,---,0.00,VWS V12.08,2013-03-05 05:00:00,
2013-03-04 23:05:00,27.7,12.4,30.05,NE,41,8.3,8.7,52,0.00,,---,0.00,VWS V12.08,2013-03-05 05:05:00,
2013-03-04 23:10:00,27.7,12.4,30.05,NE,37,5.8,11.0,52,0.00,,---,0.00,VWS V12.08,2013-03-05 05:10:00,
2013-03-04 23:15:00,27.9,12.5,30.05,NNE,28,5.8,11.0,52,0.00,,---,0.00,VWS V12.08,2013-03-05 05:15:00,
2013-03-04 23:20:00,27.9,12.5,30.05,NE,41,6.7,7.6,52,0.00,,---,0.00,VWS V12.08,2013-03-05 05:20:00,
2013-03-04 23:25:00,27.9,12.5,30.05,NNE,28,5.8,8.1,52,0.00,,---,0.00,VWS V12.08,2013-03-05 05:25:00,
2013-03-04 23:30:00,27.9,12.5,30.05,NNE,30,6.3,8.1,52,0.00,,---,0.00,VWS V12.08,2013-03-05 05:30:00,
2013-03-04 23:35:00,27.9,12.5,30.05,NNE,28,5.4,8.3,52,0.00,,---,0.00,VWS V12.08,2013-03-05 05:35:00,
2013-03-04 23:40:00,27.9,13.0,30.05,NNE,31,5.8,8.3,53,0.00,,---,0.00,VWS V12.08,2013-03-05 05:40:00,
2013-03-04 23:45:00,27.7,12.8,30.05,NNE,27,8.7,8.7,53,0.00,,---,0.00,VWS V12.08,2013-03-05 05:45:00,
2013-03-04 23:50:00,27.7,13.2,30.05,NNE,27,7.6,8.3,54,0.00,,---,0.00,VWS V12.08,2013-03-05 05:50:00,
2013-03-04 23:55:00,27.7,13.2,30.05,NNE,31,8.1,10.1,54,0.00,,---,0.00,VWS V12.08,2013-03-05 05:55:00,